createdAt,value
2018-02-06T00:01:16.210Z,12.70
2018-02-06T00:03:45.221Z,13.77
2018-02-06T00:06:12.688Z,17.60
2018-02-06T00:08:40.965Z,13.17
2018-02-06T00:11:09.204Z,15.90
2018-02-06T00:13:36.715Z,12.80
2018-02-06T00:16:04.974Z,11.93
2018-02-06T00:18:33.275Z,14.63
2018-02-06T00:21:00.767Z,15.00
2018-02-06T00:23:28.284Z,13.23
2018-02-06T00:25:56.526Z,15.27
2018-02-06T00:28:24.213Z,15.63
2018-02-06T00:30:52.459Z,13.07
2018-02-06T00:33:19.972Z,15.70
2018-02-06T00:35:47.464Z,14.63
2018-02-06T00:38:14.961Z,14.27
2018-02-06T00:40:43.236Z,13.00
2018-02-06T00:43:11.481Z,17.00
2018-02-06T00:45:38.973Z,13.87
2018-02-06T00:48:07.224Z,15.10
2018-02-06T00:50:34.750Z,14.77
2018-02-06T00:53:02.239Z,16.53
2018-02-06T00:55:29.787Z,13.63
2018-02-06T00:57:57.276Z,14.60
2018-02-06T01:00:25.561Z,14.40
2018-02-06T01:02:53.825Z,13.87
2018-02-06T01:05:21.329Z,13.03
2018-02-06T01:07:48.811Z,16.17
2018-02-06T01:10:16.345Z,15.87
2018-02-06T01:12:43.837Z,15.87
2018-02-06T01:15:11.341Z,15.43
2018-02-06T01:17:38.827Z,14.43
2018-02-06T01:20:06.332Z,17.33
2018-02-06T01:22:34.606Z,15.87
2018-02-06T01:25:02.868Z,20.27
2018-02-06T01:27:30.347Z,17.73
2018-02-06T01:29:58.626Z,18.00
2018-02-06T01:32:26.876Z,18.57
2018-02-06T01:34:54.362Z,14.40
2018-02-06T01:37:22.665Z,18.97
2018-02-06T01:39:50.170Z,17.00
2018-02-06T01:42:17.652Z,15.93
2018-02-06T01:44:45.930Z,18.70
2018-02-06T01:47:14.189Z,17.13
2018-02-06T01:50:02.391Z,19.40
2018-02-06T01:52:30.862Z,18.23
2018-02-06T01:54:58.415Z,17.50
2018-02-06T01:57:25.882Z,16.43
2018-02-06T01:59:53.388Z,17.43
2018-02-06T02:02:20.890Z,17.40
2018-02-06T02:04:48.389Z,16.57
2018-02-06T02:07:15.870Z,16.30
2018-02-06T02:09:44.132Z,18.73
2018-02-06T02:12:11.638Z,16.03
2018-02-06T02:14:39.679Z,19.17
2018-02-06T02:17:07.926Z,18.27
2018-02-06T02:19:35.936Z,15.87
2018-02-06T02:22:04.197Z,17.63
2018-02-06T02:24:32.438Z,15.67
2018-02-06T02:26:59.958Z,17.67
2018-02-06T02:29:27.456Z,15.87
2018-02-06T02:31:54.965Z,18.77
2018-02-06T02:34:22.461Z,16.40
2018-02-06T02:36:49.983Z,18.30
2018-02-06T02:39:17.475Z,17.17
2018-02-06T04:39:52.616Z,21.70
2018-02-06T04:42:20.113Z,18.90
2018-02-06T04:44:48.376Z,20.70
2018-02-06T04:47:15.876Z,19.73
2018-02-06T04:49:43.374Z,23.73
2018-02-06T04:52:10.897Z,23.77
2018-02-06T04:54:38.380Z,22.77
2018-02-06T04:57:05.888Z,21.27
2018-02-06T04:59:34.133Z,22.33
2018-02-06T05:02:01.640Z,25.27
2018-02-06T05:04:29.119Z,22.67
2018-02-06T05:06:56.605Z,23.67
2018-02-06T05:09:24.141Z,21.67
2018-02-06T05:11:51.622Z,19.80
2018-02-06T05:14:19.151Z,25.73
2018-02-06T05:16:46.629Z,24.70
2018-02-06T05:19:14.129Z,24.13
2018-02-06T05:21:41.620Z,20.63
2018-02-06T05:24:09.137Z,22.50
2018-02-06T05:26:37.396Z,19.63
2018-02-06T05:29:04.909Z,21.73
2018-02-06T05:31:32.382Z,22.90
2018-02-06T05:33:59.875Z,23.13
2018-02-06T05:36:28.125Z,23.40
2018-02-06T05:38:55.619Z,23.13
2018-02-06T05:41:23.850Z,20.33
2018-02-06T05:43:51.390Z,18.47
2018-02-06T05:46:18.869Z,25.83
2018-02-06T05:48:46.418Z,22.27
2018-02-06T05:51:13.896Z,21.07
2018-02-06T05:53:41.471Z,21.03
2018-02-06T05:56:09.025Z,21.23
2018-02-06T05:58:36.535Z,23.27
2018-02-06T06:01:04.013Z,24.77
2018-02-06T06:03:31.520Z,23.07
2018-02-06T06:05:59.060Z,23.23
2018-02-06T06:08:26.586Z,24.43
2018-02-06T06:10:54.079Z,22.83
2018-02-06T06:13:21.549Z,21.23
2018-02-06T06:15:49.839Z,22.47
2018-02-06T06:18:17.334Z,22.33
2018-02-06T06:20:44.845Z,23.90
2018-02-06T06:23:13.095Z,23.03
2018-02-06T06:25:40.596Z,22.47
2018-02-06T06:28:08.087Z,25.93
2018-02-06T06:30:35.685Z,21.57
2018-02-06T06:33:03.199Z,23.03
2018-02-06T06:35:30.721Z,22.43
2018-02-06T06:37:58.996Z,25.00
2018-02-06T06:40:27.278Z,24.87
2018-02-06T06:42:54.757Z,26.20
2018-02-06T06:45:22.259Z,21.67
2018-02-06T06:47:49.768Z,21.83
2018-02-06T06:50:17.288Z,26.73
2018-02-06T06:52:44.766Z,26.30
2018-02-06T06:55:12.353Z,22.90
2018-02-06T06:57:39.876Z,23.57
2018-02-06T07:00:07.303Z,25.77
2018-02-06T07:02:34.809Z,25.97
2018-02-06T07:05:02.276Z,27.87
2018-02-06T07:07:29.771Z,27.27
2018-02-06T07:09:57.247Z,22.80
2018-02-06T07:12:24.739Z,22.73
2018-02-06T07:14:52.216Z,24.20
2018-02-06T07:17:19.715Z,27.70
2018-02-06T07:19:47.197Z,28.00
2018-02-06T07:22:15.472Z,26.13
2018-02-06T07:24:43.699Z,24.63
2018-02-06T07:27:11.220Z,28.60
2018-02-06T07:29:38.755Z,26.50
2018-02-06T07:32:07.006Z,25.07
2018-02-06T07:34:34.489Z,27.30
2018-02-06T07:37:02.754Z,23.07
2018-02-06T07:39:30.240Z,26.07
2018-02-06T07:41:57.766Z,25.60
2018-02-06T07:44:25.259Z,27.13
2018-02-06T07:46:52.833Z,30.77
2018-02-06T07:49:20.304Z,24.73
2018-02-06T07:51:47.798Z,24.90
2018-02-06T07:54:16.131Z,24.20
2018-02-06T07:56:43.656Z,22.73
2018-02-06T07:59:11.896Z,25.97
2018-02-06T08:01:39.402Z,24.40
2018-02-06T08:04:06.935Z,25.10
2018-02-06T08:06:34.576Z,22.90
2018-02-06T08:09:02.057Z,27.77
2018-02-06T08:11:29.519Z,28.77
2018-02-06T08:13:57.023Z,24.70
2018-02-06T08:16:24.530Z,25.10
2018-02-06T08:18:52.024Z,27.90
2018-02-06T08:21:19.516Z,30.93
2018-02-06T08:23:47.036Z,29.10
2018-02-06T08:26:14.507Z,27.67
2018-02-06T08:28:42.059Z,30.67
2018-02-06T08:31:09.518Z,30.10
2018-02-06T08:33:37.030Z,29.37
2018-02-06T08:36:04.518Z,29.13
2018-02-06T08:38:33.182Z,29.57
2018-02-06T08:41:00.654Z,30.63
2018-02-06T08:43:28.960Z,31.67
2018-02-06T08:45:56.446Z,28.60
2018-02-06T08:48:24.018Z,30.93
2018-02-06T08:50:52.229Z,26.40
2018-02-06T08:53:19.752Z,30.97
2018-02-06T08:55:47.232Z,32.47
2018-02-06T08:58:15.532Z,31.83
2018-02-06T09:00:43.010Z,34.27
2018-02-06T09:03:10.484Z,31.10
2018-02-06T09:05:38.015Z,28.33
2018-02-06T09:08:05.505Z,27.47
2018-02-06T09:10:33.001Z,35.97
2018-02-06T09:13:01.256Z,30.83
2018-02-06T09:15:29.544Z,34.07
2018-02-06T09:17:57.027Z,28.00
2018-02-06T09:20:24.585Z,29.63
2018-02-06T09:22:52.082Z,34.00
2018-02-06T09:25:19.591Z,31.63
2018-02-06T09:27:47.828Z,30.83
2018-02-06T09:30:15.343Z,33.23
2018-02-06T09:32:42.833Z,31.87
2018-02-06T09:35:10.362Z,33.37
2018-02-06T09:37:37.822Z,33.00
2018-02-06T09:40:05.310Z,29.23
2018-02-06T09:42:32.791Z,29.07
2018-02-06T09:45:00.306Z,30.80
2018-02-06T09:47:27.793Z,30.90
2018-02-06T09:49:55.319Z,32.35
2018-02-06T09:52:22.810Z,37.63
2018-02-06T09:54:50.291Z,34.63
2018-02-06T09:57:18.605Z,29.33
2018-02-06T09:59:46.075Z,29.43
2018-02-06T10:02:13.585Z,28.23
2018-02-06T10:04:41.765Z,31.03
2018-02-06T10:07:09.287Z,27.50
2018-02-06T10:09:36.775Z,27.73
2018-02-06T10:12:05.113Z,30.70
2018-02-06T10:14:32.608Z,28.83
2018-02-06T10:17:00.110Z,30.83
2018-02-06T10:19:27.596Z,31.93
2018-02-06T10:21:55.077Z,26.77
2018-02-06T10:24:22.548Z,29.40
2018-02-06T10:26:50.822Z,30.60
2018-02-06T10:29:18.287Z,24.93
2018-02-06T10:31:45.831Z,30.37
2018-02-06T10:34:13.298Z,31.13
2018-02-06T10:36:40.799Z,27.07
2018-02-06T10:39:08.295Z,27.93
2018-02-06T10:41:35.835Z,25.80
2018-02-06T10:44:03.298Z,26.97
2018-02-06T10:46:31.705Z,26.20
2018-02-06T10:48:59.181Z,27.57
2018-02-06T10:51:27.402Z,25.57
2018-02-06T10:53:54.907Z,30.30
2018-02-06T10:56:23.139Z,25.93
2018-02-06T10:58:50.630Z,25.53
2018-02-06T11:01:18.876Z,26.97
2018-02-06T11:03:46.382Z,26.97
2018-02-06T11:06:13.842Z,24.33
2018-02-06T11:08:41.355Z,25.83
2018-02-06T11:11:08.846Z,26.67
2018-02-06T11:13:37.116Z,28.50
2018-02-06T11:16:05.423Z,28.97
2018-02-06T11:18:32.928Z,28.77
2018-02-06T11:21:00.392Z,27.90
2018-02-06T11:23:27.950Z,27.73
2018-02-06T11:25:55.423Z,27.17
2018-02-06T11:28:23.652Z,28.13
2018-02-06T11:30:51.151Z,27.10
2018-02-06T11:33:19.393Z,28.87
2018-02-06T11:35:46.893Z,26.13
2018-02-06T11:38:15.132Z,23.37
2018-02-06T11:40:42.643Z,26.23
2018-02-06T11:43:10.887Z,25.77
2018-02-06T11:45:38.379Z,24.80
2018-02-06T11:48:05.844Z,26.33
2018-02-06T11:50:33.378Z,21.43
2018-02-06T11:53:01.606Z,24.67
2018-02-06T11:55:29.181Z,27.07
2018-02-06T11:57:56.664Z,24.93
2018-02-06T12:00:24.949Z,26.97
2018-02-06T12:02:53.205Z,25.87
2018-02-06T12:05:20.728Z,24.40
2018-02-06T12:07:48.196Z,22.80
2018-02-06T12:10:15.795Z,23.20
2018-02-06T12:12:43.257Z,25.27
2018-02-06T12:15:11.530Z,24.57
2018-02-06T12:17:39.755Z,24.97
2018-02-06T12:20:07.275Z,23.17
2018-02-06T12:22:34.764Z,24.67
2018-02-06T12:25:02.260Z,26.13
2018-02-06T12:27:29.754Z,24.17
2018-02-06T12:29:58.017Z,23.97
2018-02-06T12:32:26.268Z,24.03
2018-02-06T12:34:53.793Z,24.20
2018-02-06T12:37:21.258Z,20.30
2018-02-06T12:39:48.767Z,22.27
2018-02-06T12:42:16.998Z,24.57
2018-02-06T12:44:44.631Z,25.20
2018-02-06T12:47:12.102Z,26.27
2018-02-06T12:49:39.571Z,25.37
2018-02-06T12:52:07.061Z,21.07
2018-02-06T12:54:34.541Z,23.57
2018-02-06T12:57:02.814Z,23.57
2018-02-06T12:59:30.305Z,23.60
2018-02-06T13:01:57.790Z,25.30
2018-02-06T13:04:25.265Z,23.40
2018-02-06T13:06:52.806Z,25.47
2018-02-06T13:09:20.292Z,25.33
2018-02-06T13:11:48.578Z,27.07
2018-02-06T13:14:16.807Z,23.60
2018-02-06T13:16:44.318Z,23.67
2018-02-06T13:19:11.844Z,21.67
2018-02-06T13:21:39.402Z,26.70
2018-02-06T13:24:06.829Z,23.87
2018-02-06T13:26:34.320Z,24.87
2018-02-06T13:29:01.918Z,22.67
2018-02-06T13:31:29.423Z,23.07
2018-02-06T13:33:57.049Z,25.67
2018-02-06T13:36:24.562Z,25.37
2018-02-06T13:38:52.063Z,22.90
2018-02-06T13:41:19.555Z,24.33
2018-02-06T13:43:47.026Z,25.20
2018-02-06T13:46:14.516Z,21.00
2018-02-06T13:48:42.786Z,23.60
2018-02-06T13:51:10.301Z,25.90
2018-02-06T13:53:37.846Z,23.27
2018-02-06T13:56:05.313Z,20.53
2018-02-06T13:58:32.817Z,27.67
2018-02-06T14:01:01.065Z,23.40
2018-02-06T14:03:28.602Z,23.93
2018-02-06T14:05:56.082Z,24.27
2018-02-06T14:08:23.582Z,24.53
2018-02-06T14:10:51.084Z,23.27
2018-02-06T14:13:18.555Z,24.00
2018-02-06T14:15:46.057Z,24.97
2018-02-06T14:18:13.549Z,26.10
2018-02-06T14:20:41.051Z,22.20
2018-02-06T14:23:09.289Z,25.93
2018-02-06T14:25:36.787Z,23.53
2018-02-06T14:28:05.057Z,23.67
2018-02-06T14:30:32.601Z,22.03
2018-02-06T14:33:00.080Z,23.87
2018-02-06T14:35:28.350Z,29.03
2018-02-06T14:37:55.821Z,24.30
2018-02-06T14:40:24.082Z,23.53
2018-02-06T14:42:52.354Z,25.13
2018-02-06T14:45:19.903Z,25.13
2018-02-06T14:47:47.384Z,22.77
2018-02-06T14:50:15.668Z,24.67
2018-02-06T14:52:43.972Z,24.13
2018-02-06T14:55:11.497Z,24.20
2018-02-06T14:57:38.972Z,25.73
2018-02-06T15:00:07.408Z,26.10
2018-02-06T15:02:34.879Z,25.97
2018-02-06T15:05:02.422Z,24.07
2018-02-06T15:07:29.946Z,26.77
2018-02-06T15:09:57.438Z,28.33
2018-02-06T15:12:24.934Z,25.57
2018-02-06T15:14:53.167Z,27.00
2018-02-06T15:17:20.672Z,24.93
2018-02-06T15:19:48.929Z,27.10
2018-02-06T15:22:16.435Z,28.03
2018-02-06T15:24:43.940Z,21.90
2018-02-06T15:27:11.456Z,25.03
2018-02-06T15:29:38.941Z,28.37
2018-02-06T15:32:06.453Z,28.50
2018-02-06T15:34:33.933Z,25.70
2018-02-06T15:37:01.494Z,22.27
2018-02-06T15:39:29.030Z,24.73
2018-02-06T15:41:56.575Z,21.93
2018-02-06T15:44:24.051Z,29.20
2018-02-06T15:46:51.571Z,23.23
2018-02-06T15:49:19.042Z,29.13
2018-02-06T15:51:47.331Z,29.13
2018-02-06T15:54:14.822Z,26.77
2018-02-06T15:56:42.348Z,29.10
2018-02-06T15:59:09.887Z,23.33
2018-02-06T16:01:38.177Z,25.77
2018-02-06T16:04:05.664Z,25.27
2018-02-06T16:06:33.223Z,25.30
2018-02-06T16:09:00.691Z,25.23
2018-02-06T16:11:28.190Z,28.30
2018-02-06T16:13:55.696Z,25.27
2018-02-06T16:16:23.951Z,27.37
2018-02-06T16:18:51.468Z,24.77
2018-02-06T16:21:18.945Z,27.40
2018-02-06T16:23:47.238Z,30.07
2018-02-06T16:26:15.484Z,26.27
2018-02-06T16:28:43.064Z,27.13
2018-02-06T16:31:11.317Z,29.30
2018-02-06T16:33:39.630Z,28.43
2018-02-06T16:36:07.140Z,25.90
2018-02-06T16:38:34.659Z,27.43
2018-02-06T16:41:02.142Z,24.67
2018-02-06T16:43:29.779Z,24.47
2018-02-06T16:45:57.273Z,26.07
2018-02-06T16:48:24.778Z,28.77
2018-02-06T16:50:52.271Z,30.40
2018-02-06T16:53:19.771Z,34.37
2018-02-06T16:55:47.261Z,33.90
2018-02-06T16:58:14.789Z,30.77
2018-02-06T17:00:43.067Z,25.00
2018-02-06T17:03:11.357Z,30.47
2018-02-06T17:05:39.587Z,32.47
2018-02-06T17:08:07.397Z,32.07
2018-02-06T17:10:35.632Z,26.77
2018-02-06T17:13:03.154Z,30.40
2018-02-06T17:15:30.688Z,28.30
2018-02-06T17:17:58.936Z,29.83
2018-02-06T17:20:26.459Z,30.23
2018-02-06T17:22:53.946Z,29.07
2018-02-06T17:25:21.465Z,27.53
2018-02-06T17:27:48.956Z,25.83
2018-02-06T17:30:16.564Z,27.67
2018-02-06T17:32:44.821Z,29.23
2018-02-06T17:35:13.102Z,28.03
2018-02-06T17:37:40.582Z,32.13
2018-02-06T17:40:08.082Z,30.07
2018-02-06T17:42:35.564Z,34.07
2018-02-06T17:45:04.785Z,30.13
2018-02-06T17:47:32.546Z,26.73
2018-02-06T17:50:00.815Z,29.37
2018-02-06T17:52:31.908Z,30.37
2018-02-06T17:54:59.440Z,28.60
2018-02-06T17:57:26.925Z,25.37
2018-02-06T17:59:55.321Z,31.97
2018-02-06T18:02:22.872Z,28.07
2018-02-06T18:04:50.314Z,32.17
2018-02-06T18:07:17.802Z,29.10
2018-02-06T18:09:45.280Z,28.60
2018-02-06T18:12:13.548Z,26.33
2018-02-06T18:14:41.035Z,31.80
2018-02-06T18:17:08.576Z,29.40
2018-02-06T18:19:36.834Z,37.77
2018-02-06T18:22:04.342Z,33.30
2018-02-06T18:24:32.629Z,28.30
2018-02-06T18:27:00.159Z,33.73
2018-02-06T18:29:27.669Z,32.20
2018-02-06T18:31:55.196Z,28.27
2018-02-06T18:34:22.726Z,31.57
2018-02-06T18:36:50.978Z,24.67
2018-02-06T18:39:18.490Z,31.73
2018-02-06T18:41:45.985Z,32.00
2018-02-06T18:44:13.453Z,30.20
2018-02-06T18:46:41.014Z,30.23
2018-02-06T18:49:08.479Z,32.47
2018-02-06T18:51:36.878Z,30.03
2018-02-06T18:54:05.110Z,40.20
2018-02-06T18:56:32.599Z,36.03
2018-02-06T18:59:00.870Z,40.97
2018-02-06T19:01:28.331Z,43.90
2018-02-06T19:03:56.621Z,39.57
2018-02-06T19:06:24.100Z,31.53
2018-02-06T19:08:51.609Z,43.40
2018-02-06T19:11:19.334Z,33.10
2018-02-06T19:13:46.843Z,31.33
2018-02-06T19:16:14.324Z,33.43
2018-02-06T19:18:42.650Z,39.00
2018-02-06T19:21:10.157Z,32.37
2018-02-06T19:23:38.443Z,34.17
2018-02-06T19:26:06.922Z,34.37
2018-02-06T19:28:34.497Z,33.13
2018-02-06T19:31:02.811Z,33.70
2018-02-06T19:33:31.102Z,33.27
2018-02-06T19:35:59.394Z,29.27
2018-02-06T19:38:27.711Z,33.03
2018-02-06T19:40:55.175Z,31.77
2018-02-06T19:43:22.725Z,34.53
2018-02-06T19:45:50.735Z,33.93
2018-02-06T19:48:18.255Z,29.50
2018-02-06T19:50:45.727Z,25.27
2018-02-06T19:53:13.783Z,34.90
2018-02-06T19:55:42.107Z,39.13
2018-02-06T19:58:09.600Z,40.30
2018-02-06T20:00:37.112Z,30.63
2018-02-06T20:03:04.741Z,29.87
2018-02-06T20:05:32.312Z,27.83
2018-02-06T20:07:59.800Z,31.27
2018-02-06T20:10:27.325Z,27.37
2018-02-06T20:12:54.811Z,33.07
2018-02-06T20:15:22.317Z,31.37
2018-02-06T20:17:49.876Z,32.03
2018-02-06T20:20:17.375Z,30.13
2018-02-06T20:22:44.886Z,30.53
2018-02-06T20:25:12.423Z,24.70
2018-02-06T20:27:41.658Z,28.80
2018-02-06T20:30:09.173Z,28.73
2018-02-06T20:32:37.423Z,33.67
2018-02-06T20:35:04.923Z,33.50
2018-02-06T20:37:32.408Z,26.60
2018-02-06T20:40:00.067Z,28.57
2018-02-06T20:42:27.554Z,28.73
2018-02-06T20:44:55.613Z,27.13
2018-02-06T20:47:23.577Z,33.00
2018-02-06T20:49:51.996Z,33.73
2018-02-06T20:52:19.486Z,35.97
2018-02-06T20:54:46.972Z,28.03
2018-02-06T20:57:14.505Z,33.67
2018-02-06T20:59:42.029Z,32.90
2018-02-06T21:02:09.506Z,27.90
2018-02-06T21:04:37.805Z,33.13
2018-02-06T21:07:05.304Z,29.53
2018-02-06T21:09:32.925Z,30.80
2018-02-06T21:12:00.407Z,28.83
2018-02-06T21:14:27.912Z,34.50
2018-02-06T21:16:56.159Z,36.43
2018-02-06T21:19:23.697Z,39.70
2018-02-06T21:21:51.186Z,28.53
2018-02-06T21:24:18.664Z,32.03
2018-02-06T21:26:46.930Z,30.00
2018-02-06T21:29:15.191Z,29.23
2018-02-06T21:31:42.686Z,29.50
2018-02-06T21:34:10.165Z,29.87
2018-02-06T21:36:37.687Z,29.70
2018-02-06T21:39:05.914Z,35.37
2018-02-06T21:41:33.453Z,36.27
2018-02-06T21:44:00.965Z,30.67
2018-02-06T21:46:28.470Z,31.70
2018-02-06T21:48:55.935Z,33.10
2018-02-06T21:51:23.466Z,35.60
2018-02-06T21:53:51.709Z,33.40
2018-02-06T21:56:19.230Z,32.93
2018-02-06T21:58:46.705Z,33.60
2018-02-06T22:01:14.192Z,36.17
2018-02-06T22:03:41.701Z,33.43
2018-02-06T22:06:09.175Z,32.80
2018-02-06T22:08:36.684Z,30.43
2018-02-06T22:11:04.959Z,35.00
2018-02-06T22:13:33.212Z,34.40
2018-02-06T22:16:00.730Z,33.80
2018-02-06T22:18:28.213Z,34.90
2018-02-06T22:20:55.839Z,27.93
2018-02-06T22:23:23.333Z,30.40
2018-02-06T22:25:50.798Z,32.00
2018-02-06T22:28:18.299Z,29.17
2018-02-06T22:30:45.837Z,35.53
2018-02-06T22:33:14.087Z,32.20
2018-02-06T22:35:41.611Z,34.97
2018-02-06T22:38:09.101Z,31.67
2018-02-06T22:40:36.611Z,33.20
2018-02-06T22:43:04.081Z,34.00
2018-02-06T22:45:31.597Z,30.50
2018-02-06T22:47:59.847Z,38.23
2018-02-06T22:50:27.376Z,30.83
2018-02-06T22:52:54.869Z,39.33
2018-02-06T22:55:22.345Z,31.73
2018-02-06T22:57:50.628Z,34.03
2018-02-06T23:00:24.612Z,29.10
2018-02-06T23:02:52.113Z,27.60
2018-02-06T23:05:19.583Z,35.27
2018-02-06T23:07:47.087Z,27.47
2018-02-06T23:10:14.584Z,33.27
2018-02-06T23:12:42.841Z,32.30
2018-02-06T23:15:11.107Z,35.10
2018-02-06T23:17:38.585Z,40.97
2018-02-06T23:20:06.821Z,30.80
2018-02-06T23:22:34.318Z,32.57
2018-02-06T23:25:02.558Z,30.77
2018-02-06T23:27:30.127Z,35.70
2018-02-06T23:29:57.611Z,32.03
2018-02-06T23:32:25.892Z,34.03
2018-02-06T23:34:54.140Z,30.03
2018-02-06T23:37:21.662Z,35.93
2018-02-06T23:39:49.177Z,32.73
2018-02-06T23:42:17.512Z,32.90
2018-02-06T23:44:44.972Z,34.03
2018-02-06T23:47:12.452Z,34.80
2018-02-06T23:49:39.958Z,37.30
2018-02-06T23:52:07.440Z,40.73
2018-02-06T23:54:35.708Z,31.10
2018-02-06T23:57:03.188Z,33.17
2018-02-06T23:59:30.713Z,38.10
